createdAt,value
2022-08-03T00:04:34.028Z,100943.91
2022-08-03T00:09:36.452Z,100942.94
2022-08-03T00:14:40.517Z,100946.59
2022-08-03T00:19:42.376Z,100943.22
2022-08-03T00:24:44.305Z,100938.13
2022-08-03T00:29:57.595Z,100945.03
2022-08-03T00:35:08.297Z,100944.44
2022-08-03T00:40:15.363Z,100946.59
2022-08-03T00:45:18.486Z,100941.81
2022-08-03T00:50:24.340Z,100947.47
2022-08-03T00:55:26.951Z,100933.84
2022-08-03T01:00:28.841Z,100937.00
2022-08-03T01:05:34.661Z,100930.44
2022-08-03T01:11:09.461Z,100926.97
2022-08-03T01:16:13.873Z,100923.94
2022-08-03T01:22:11.153Z,100913.16
2022-08-03T01:27:22.287Z,100917.34
2022-08-03T01:32:54.538Z,100911.00
2022-08-03T01:38:02.837Z,100913.56
2022-08-03T01:43:07.019Z,100909.00
2022-08-03T01:48:11.655Z,100904.06
2022-08-03T01:53:17.620Z,100899.47
2022-08-03T01:58:21.658Z,100905.13
2022-08-03T02:03:24.541Z,100911.13
2022-08-03T02:08:28.962Z,100906.56
2022-08-03T02:13:33.250Z,100901.69
2022-08-03T02:18:35.639Z,100900.72
2022-08-03T02:23:38.665Z,100905.41
2022-08-03T02:28:43.535Z,100903.13
2022-08-03T02:33:54.269Z,100903.97
2022-08-03T02:38:59.277Z,100900.13
2022-08-03T02:44:06.845Z,100896.59
2022-08-03T02:49:40.863Z,100899.16
2022-08-03T02:54:34.933Z,100893.06
2022-08-03T02:59:37.845Z,100893.06
2022-08-03T03:04:41.830Z,100886.94
2022-08-03T03:10:04.301Z,100891.44
2022-08-03T03:15:06.903Z,100892.56
2022-08-03T03:20:09.679Z,100888.63
2022-08-03T03:25:11.760Z,100887.66
2022-08-03T03:30:13.791Z,100892.44
2022-08-03T03:35:16.802Z,100888.38
2022-08-03T03:40:19.810Z,100890.72
2022-08-03T03:45:22.181Z,100892.06
2022-08-03T03:50:25.048Z,100890.00
2022-08-03T03:55:27.133Z,100888.50
2022-08-03T04:00:28.969Z,100890.47
2022-08-03T04:05:49.264Z,100887.66
2022-08-03T04:11:17.018Z,100883.25
2022-08-03T04:16:22.756Z,100874.72
2022-08-03T04:21:25.882Z,100884.13
2022-08-03T04:26:30.440Z,100886.34
2022-08-03T04:31:32.854Z,100884.50
2022-08-03T04:36:44.972Z,100885.88
2022-08-03T04:42:07.312Z,100894.31
2022-08-03T04:47:10.917Z,100893.94
2022-08-03T04:52:13.142Z,100891.97
2022-08-03T04:57:23.024Z,100903.00
2022-08-03T05:02:25.517Z,100902.38
2022-08-03T05:07:35.768Z,100913.78
2022-08-03T05:12:39.442Z,100913.53
2022-08-03T05:17:41.520Z,100920.41
2022-08-03T05:22:43.330Z,100913.66
2022-08-03T05:27:45.479Z,100918.94
2022-08-03T05:32:47.415Z,100922.69
2022-08-03T05:37:54.881Z,100918.69
2022-08-03T05:42:58.297Z,100919.84
2022-08-03T05:48:00.359Z,100914.00
2022-08-03T05:53:02.373Z,100926.03
2022-08-03T05:58:04.218Z,100925.91
2022-08-03T06:03:06.755Z,100928.84
2022-08-03T06:08:08.979Z,100926.16
2022-08-03T06:13:10.970Z,100917.81
2022-08-03T06:18:12.997Z,100923.66
2022-08-03T06:23:16.158Z,100922.22
2022-08-03T06:28:51.404Z,100918.25
2022-08-03T06:33:48.463Z,100917.13
2022-08-03T06:39:04.562Z,100925.09
2022-08-03T06:44:06.433Z,100923.13
2022-08-03T06:49:08.589Z,100936.00
2022-08-03T06:54:11.134Z,100928.53
2022-08-03T07:00:07.338Z,100926.47
2022-08-03T07:04:35.120Z,100934.31
2022-08-03T07:09:37.097Z,100932.75
2022-08-03T07:14:38.821Z,100933.59
2022-08-03T07:19:40.730Z,100935.88
2022-08-03T07:24:42.544Z,100942.59
2022-08-03T07:29:44.294Z,100944.88
2022-08-03T07:34:46.207Z,100942.91
2022-08-03T07:39:48.079Z,100939.31
2022-08-03T07:44:50.396Z,100941.47
2022-08-03T07:49:52.836Z,100947.47
2022-08-03T07:54:54.779Z,100946.47
2022-08-03T08:00:02.416Z,100943.31
2022-08-03T08:05:05.930Z,100946.16
2022-08-03T08:10:13.088Z,100939.59
2022-08-03T08:15:15.236Z,100949.28
2022-08-03T08:20:27.723Z,100949.28
2022-08-03T08:25:32.564Z,100941.38
2022-08-03T08:30:34.848Z,100939.41
2022-08-03T08:35:37.368Z,100940.13
2022-08-03T08:40:39.485Z,100944.13
2022-08-03T08:45:42.093Z,100940.41
2022-08-03T08:50:45.294Z,100944.88
2022-08-03T08:55:59.206Z,100954.47
2022-08-03T09:01:05.742Z,100946.38
2022-08-03T09:06:07.610Z,100948.22
2022-08-03T09:11:11.070Z,100944.25
2022-08-03T09:16:15.527Z,100938.41
2022-08-03T09:21:32.975Z,100942.19
2022-08-03T09:26:37.672Z,100933.25
2022-08-03T09:31:45.171Z,100944.53
2022-08-03T09:36:51.956Z,100937.63
2022-08-03T09:42:10.142Z,100936.31
2022-08-03T09:47:13.821Z,100935.03
2022-08-03T09:52:39.416Z,100930.13
2022-08-03T09:57:41.988Z,100932.88
2022-08-03T10:02:47.133Z,100936.13
2022-08-03T10:07:50.245Z,100929.28
2022-08-03T10:12:52.251Z,100929.72
2022-08-03T10:17:54.323Z,100921.38
2022-08-03T10:22:57.490Z,100913.94
2022-08-03T10:28:04.726Z,100917.13
2022-08-03T10:33:51.218Z,100912.97
2022-08-03T10:38:47.949Z,100904.34
2022-08-03T10:44:13.459Z,100905.34
2022-08-03T10:49:20.715Z,100907.47
2022-08-03T10:55:07.321Z,100908.00
2022-08-03T11:00:10.754Z,100895.81
2022-08-03T11:05:33.030Z,100896.53
2022-08-03T11:10:35.760Z,100889.28
2022-08-03T11:15:37.974Z,100891.00
2022-08-03T11:20:54.902Z,100882.78
2022-08-03T11:26:15.805Z,100888.44
2022-08-03T11:31:48.090Z,100883.06
2022-08-03T11:37:21.872Z,100879.06
2022-08-03T11:42:27.632Z,100879.91
2022-08-03T11:47:30.197Z,100873.97
2022-08-03T11:52:37.227Z,100871.41
2022-08-03T11:59:19.156Z,100869.03
2022-08-03T12:03:07.184Z,100864.16
2022-08-03T12:08:11.494Z,100871.22
2022-08-03T12:14:26.937Z,100870.41
2022-08-03T12:18:36.237Z,100866.56
2022-08-03T12:23:39.122Z,100857.19
2022-08-03T12:28:49.954Z,100853.66
2022-08-03T12:34:06.740Z,100863.31
2022-08-03T12:39:09.787Z,100856.94
2022-08-03T12:44:11.754Z,100852.94
2022-08-03T12:49:15.855Z,100842.13
2022-08-03T12:54:24.494Z,100838.16
2022-08-03T12:59:32.249Z,100839.88
2022-08-03T13:04:37.657Z,100840.72
2022-08-03T13:09:49.383Z,100844.13
2022-08-03T13:14:55.106Z,100839.31
2022-08-03T13:19:56.933Z,100847.28
2022-08-03T13:24:58.861Z,100843.56
2022-08-03T13:30:00.910Z,100832.19
2022-08-03T13:35:03.212Z,100826.53
2022-08-03T13:40:07.542Z,100818.72
2022-08-03T13:45:13.680Z,100828.78
2022-08-03T13:50:15.993Z,100817.72
2022-08-03T13:55:17.812Z,100813.16
2022-08-03T14:00:27.595Z,100826.09
2022-08-03T14:05:32.221Z,100812.88
2022-08-03T14:10:36.190Z,100803.66
2022-08-03T14:15:38.758Z,100796.94
2022-08-03T14:20:48.650Z,100790.16
2022-08-03T14:25:53.174Z,100786.44
2022-08-03T14:30:58.653Z,100787.03
2022-08-03T14:36:00.655Z,100780.75
2022-08-03T14:41:02.653Z,100769.53
2022-08-03T14:46:04.728Z,100758.31
2022-08-03T14:51:06.789Z,100756.44
2022-08-03T14:56:10.732Z,100761.72
2022-08-03T15:02:03.343Z,100763.13
2022-08-03T15:06:34.972Z,100758.88
2022-08-03T15:11:37.034Z,100751.22
2022-08-03T15:16:39.065Z,100752.06
2022-08-03T15:21:47.226Z,100748.53
2022-08-03T15:26:49.669Z,100741.13
2022-08-03T15:31:51.497Z,100738.31
2022-08-03T15:36:53.601Z,100733.19
2022-08-03T15:41:55.499Z,100729.19
2022-08-03T15:46:58.209Z,100724.94
2022-08-03T15:52:01.482Z,100726.38
2022-08-03T15:57:03.535Z,100716.56
2022-08-03T16:02:05.692Z,100717.44
2022-08-03T16:07:07.656Z,100716.28
2022-08-03T16:12:16.301Z,100700.78
2022-08-03T16:17:18.934Z,100701.34
2022-08-03T16:22:23.019Z,100699.91
2022-08-03T16:27:58.135Z,100694.09
2022-08-03T16:32:48.931Z,100687.81
2022-08-03T16:37:56.440Z,100683.13
2022-08-03T16:42:59.392Z,100681.00
2022-08-03T16:48:05.716Z,100679.00
2022-08-03T16:53:09.870Z,100679.19
2022-08-03T16:58:17.137Z,100671.94
2022-08-03T17:03:24.288Z,100667.06
2022-08-03T17:08:27.465Z,100670.47
2022-08-03T17:13:39.847Z,100673.34
2022-08-03T17:18:56.765Z,100666.66
2022-08-03T17:24:12.404Z,100669.38
2022-08-03T17:29:18.882Z,100667.22
2022-08-03T17:34:26.582Z,100661.25
2022-08-03T17:39:55.825Z,100655.88
2022-08-03T17:44:54.997Z,100669.63
2022-08-03T17:49:58.575Z,100670.47
2022-08-03T18:00:51.664Z,100673.63
2022-08-03T18:06:10.901Z,100672.78
2022-08-03T18:11:21.963Z,100674.47
2022-08-03T18:16:44.789Z,100673.38
2022-08-03T18:22:02.983Z,100678.59
2022-08-03T18:27:07.309Z,100679.16
2022-08-03T18:32:13.699Z,100672.22
2022-08-03T18:37:24.956Z,100679.47
2022-08-03T18:42:27.430Z,100681.88
2022-08-03T18:47:52.515Z,100680.44
2022-08-03T18:52:57.512Z,100682.59
2022-08-03T18:58:20.124Z,100686.28
2022-08-03T19:03:25.128Z,100678.31
2022-08-03T19:08:48.479Z,100691.53
2022-08-03T19:13:52.744Z,100689.81
2022-08-03T19:18:56.387Z,100692.09
2022-08-03T19:24:09.769Z,100692.66
2022-08-03T19:29:15.303Z,100697.75
2022-08-03T19:34:21.230Z,100694.97
2022-08-03T19:39:26.097Z,100694.78
2022-08-03T19:44:31.565Z,100699.78
2022-08-03T19:50:04.827Z,100705.00
2022-08-03T19:55:05.889Z,100706.72
2022-08-03T20:00:12.156Z,100703.16
2022-08-03T20:05:17.209Z,100702.75
2022-08-03T20:10:19.594Z,100701.78
2022-08-03T20:15:31.122Z,100709.75
2022-08-03T20:20:35.555Z,100706.91
2022-08-03T20:25:57.115Z,100707.75
2022-08-03T20:31:01.888Z,100706.91
2022-08-03T20:36:04.861Z,100703.19
2022-08-03T20:41:07.111Z,100699.78
2022-08-03T20:46:31.378Z,100704.34
2022-08-03T20:51:50.083Z,100700.63
2022-08-03T20:56:54.559Z,100699.50
2022-08-03T21:01:56.628Z,100703.63
2022-08-03T21:07:04.130Z,100712.56
2022-08-03T21:12:30.046Z,100707.34
2022-08-03T21:12:55.768Z,100673.34
2022-08-03T21:17:41.014Z,100697.53
2022-08-03T21:22:47.181Z,100690.41
2022-08-03T21:27:49.388Z,100691.41
2022-08-03T21:32:53.096Z,100693.41
2022-08-03T21:38:14.036Z,100697.97
2022-08-03T21:43:15.980Z,100687.44
2022-08-03T21:48:18.454Z,100687.69
2022-08-03T21:53:21.191Z,100683.84
2022-08-03T21:58:31.099Z,100687.41
2022-08-03T22:03:53.135Z,100691.56
2022-08-03T22:08:55.196Z,100691.56
2022-08-03T22:13:57.045Z,100680.19
2022-08-03T22:18:59.013Z,100685.00
2022-08-03T22:24:01.671Z,100687.25
2022-08-03T22:29:08.245Z,100687.84
2022-08-03T22:34:10.546Z,100686.72
2022-08-03T22:39:13.040Z,100691.69
2022-08-03T22:44:28.217Z,100686.72
2022-08-03T22:49:31.714Z,100684.16
2022-08-03T22:54:34.472Z,100692.13
2022-08-03T22:59:39.932Z,100685.00
2022-08-03T23:04:45.173Z,100681.31
2022-08-03T23:09:48.794Z,100681.31
2022-08-03T23:14:56.117Z,100685.84
2022-08-03T23:20:06.315Z,100685.00
2022-08-03T23:25:08.445Z,100679.59
2022-08-03T23:30:13.603Z,100673.50
2022-08-03T23:36:20.105Z,100684.03
2022-08-03T23:41:02.132Z,100685.00
2022-08-03T23:46:06.725Z,100690.28
2022-08-03T23:51:19.977Z,100691.13
2022-08-03T23:56:34.424Z,100687.13
